sensor_id;sensor_type;location;lat;lon;timestamp;P1;durP1;ratioP1;P2;durP2;ratioP2
11283;SDS011;5698;47.332;11.180;2023-02-28T00:02:20;6.83;;;6.17;;
11283;SDS011;5698;47.332;11.180;2023-02-28T00:04:47;9.57;;;7.07;;
11283;SDS011;5698;47.332;11.180;2023-02-28T00:07:18;6.87;;;6.27;;
11283;SDS011;5698;47.332;11.180;2023-02-28T00:09:45;6.97;;;6.27;;
11283;SDS011;5698;47.332;11.180;2023-02-28T00:12:13;7.07;;;6.37;;
11283;SDS011;5698;47.332;11.180;2023-02-28T00:14:40;6.33;;;5.73;;
11283;SDS011;5698;47.332;11.180;2023-02-28T00:17:07;6.37;;;5.77;;
11283;SDS011;5698;47.332;11.180;2023-02-28T00:19:34;8.10;;;5.90;;
11283;SDS011;5698;47.332;11.180;2023-02-28T00:22:01;6.70;;;6.10;;
11283;SDS011;5698;47.332;11.180;2023-02-28T00:24:28;6.33;;;5.73;;
11283;SDS011;5698;47.332;11.180;2023-02-28T00:26:55;5.73;;;5.20;;
11283;SDS011;5698;47.332;11.180;2023-02-28T00:29:23;6.30;;;5.70;;
11283;SDS011;5698;47.332;11.180;2023-02-28T00:31:50;6.13;;;5.53;;
11283;SDS011;5698;47.332;11.180;2023-02-28T00:34:17;5.83;;;5.23;;
11283;SDS011;5698;47.332;11.180;2023-02-28T00:36:44;5.73;;;5.00;;
11283;SDS011;5698;47.332;11.180;2023-02-28T00:39:15;6.53;;;5.93;;
11283;SDS011;5698;47.332;11.180;2023-02-28T00:41:42;6.30;;;5.30;;
11283;SDS011;5698;47.332;11.180;2023-02-28T00:44:09;5.93;;;5.23;;
11283;SDS011;5698;47.332;11.180;2023-02-28T00:46:37;5.67;;;5.07;;
11283;SDS011;5698;47.332;11.180;2023-02-28T00:49:04;5.77;;;5.17;;
11283;SDS011;5698;47.332;11.180;2023-02-28T00:51:31;8.67;;;5.20;;
11283;SDS011;5698;47.332;11.180;2023-02-28T00:53:58;6.20;;;4.70;;
11283;SDS011;5698;47.332;11.180;2023-02-28T00:56:25;5.40;;;4.87;;
11283;SDS011;5698;47.332;11.180;2023-02-28T00:58:52;5.97;;;5.00;;
11283;SDS011;5698;47.332;11.180;2023-02-28T01:01:19;5.53;;;5.03;;
11283;SDS011;5698;47.332;11.180;2023-02-28T01:03:48;5.13;;;4.63;;
11283;SDS011;5698;47.332;11.180;2023-02-28T01:06:15;6.80;;;4.50;;
11283;SDS011;5698;47.332;11.180;2023-02-28T01:08:42;4.13;;;3.83;;
11283;SDS011;5698;47.332;11.180;2023-02-28T01:11:09;6.27;;;4.73;;
11283;SDS011;5698;47.332;11.180;2023-02-28T01:13:38;4.73;;;4.33;;
11283;SDS011;5698;47.332;11.180;2023-02-28T01:16:05;4.83;;;4.33;;
11283;SDS011;5698;47.332;11.180;2023-02-28T01:18:33;5.03;;;4.53;;
11283;SDS011;5698;47.332;11.180;2023-02-28T01:21:04;5.63;;;5.03;;
11283;SDS011;5698;47.332;11.180;2023-02-28T01:23:31;6.17;;;5.57;;
11283;SDS011;5698;47.332;11.180;2023-02-28T01:26:03;6.93;;;5.83;;
11283;SDS011;5698;47.332;11.180;2023-02-28T01:28:31;5.93;;;5.33;;
11283;SDS011;5698;47.332;11.180;2023-02-28T01:30:59;6.10;;;5.50;;
11283;SDS011;5698;47.332;11.180;2023-02-28T01:33:26;5.93;;;5.33;;
11283;SDS011;5698;47.332;11.180;2023-02-28T01:35:57;6.40;;;5.30;;
11283;SDS011;5698;47.332;11.180;2023-02-28T01:38:26;5.97;;;5.37;;
11283;SDS011;5698;47.332;11.180;2023-02-28T01:40:53;5.10;;;4.60;;
11283;SDS011;5698;47.332;11.180;2023-02-28T01:43:22;5.87;;;5.27;;
11283;SDS011;5698;47.332;11.180;2023-02-28T01:45:51;5.80;;;5.20;;
11283;SDS011;5698;47.332;11.180;2023-02-28T01:48:19;5.20;;;4.70;;
11283;SDS011;5698;47.332;11.180;2023-02-28T01:50:49;7.57;;;5.50;;
11283;SDS011;5698;47.332;11.180;2023-02-28T01:53:17;7.33;;;6.63;;
11283;SDS011;5698;47.332;11.180;2023-02-28T01:55:49;7.20;;;6.37;;
11283;SDS011;5698;47.332;11.180;2023-02-28T01:58:18;6.67;;;5.97;;
11283;SDS011;5698;47.332;11.180;2023-02-28T02:00:46;6.27;;;5.67;;
11283;SDS011;5698;47.332;11.180;2023-02-28T02:03:13;5.97;;;5.37;;
11283;SDS011;5698;47.332;11.180;2023-02-28T02:05:45;6.10;;;5.50;;
11283;SDS011;5698;47.332;11.180;2023-02-28T02:08:13;5.97;;;5.37;;
11283;SDS011;5698;47.332;11.180;2023-02-28T02:10:44;5.43;;;4.93;;
11283;SDS011;5698;47.332;11.180;2023-02-28T02:13:27;6.83;;;6.13;;
11283;SDS011;5698;47.332;11.180;2023-02-28T02:16:32;6.90;;;6.20;;
11283;SDS011;5698;47.332;11.180;2023-02-28T02:19:12;11.97;;;9.33;;
11283;SDS011;5698;47.332;11.180;2023-02-28T02:21:54;11.60;;;10.07;;
11283;SDS011;5698;47.332;11.180;2023-02-28T02:24:44;13.33;;;11.10;;
11283;SDS011;5698;47.332;11.180;2023-02-28T02:27:33;12.63;;;10.47;;
11283;SDS011;5698;47.332;11.180;2023-02-28T02:30:32;13.23;;;10.13;;
11283;SDS011;5698;47.332;11.180;2023-02-28T02:33:19;11.00;;;9.17;;
11283;SDS011;5698;47.332;11.180;2023-02-28T02:36:03;10.63;;;9.27;;
11283;SDS011;5698;47.332;11.180;2023-02-28T02:38:33;11.60;;;10.40;;
11283;SDS011;5698;47.332;11.180;2023-02-28T02:41:08;13.13;;;9.67;;
11283;SDS011;5698;47.332;11.180;2023-02-28T02:43:40;10.40;;;9.30;;
11283;SDS011;5698;47.332;11.180;2023-02-28T02:46:13;11.30;;;10.07;;
11283;SDS011;5698;47.332;11.180;2023-02-28T02:48:43;9.37;;;8.33;;
11283;SDS011;5698;47.332;11.180;2023-02-28T02:51:14;11.83;;;8.63;;
11283;SDS011;5698;47.332;11.180;2023-02-28T02:53:44;9.67;;;8.67;;
11283;SDS011;5698;47.332;11.180;2023-02-28T02:56:15;9.47;;;8.47;;
11283;SDS011;5698;47.332;11.180;2023-02-28T02:58:46;10.20;;;8.53;;
11283;SDS011;5698;47.332;11.180;2023-02-28T03:01:16;12.03;;;10.73;;
11283;SDS011;5698;47.332;11.180;2023-02-28T03:03:53;12.83;;;10.17;;
11283;SDS011;5698;47.332;11.180;2023-02-28T03:06:23;12.10;;;9.90;;
11283;SDS011;5698;47.332;11.180;2023-02-28T03:08:50;13.00;;;10.03;;
11283;SDS011;5698;47.332;11.180;2023-02-28T03:11:17;11.93;;;9.87;;
11283;SDS011;5698;47.332;11.180;2023-02-28T03:13:52;9.07;;;8.00;;
11283;SDS011;5698;47.332;11.180;2023-02-28T03:16:50;10.20;;;7.50;;
11283;SDS011;5698;47.332;11.180;2023-02-28T03:19:37;9.03;;;7.90;;
11283;SDS011;5698;47.332;11.180;2023-02-28T03:22:17;9.13;;;7.67;;
11283;SDS011;5698;47.332;11.180;2023-02-28T03:24:56;10.10;;;8.53;;
11283;SDS011;5698;47.332;11.180;2023-02-28T03:27:29;8.67;;;7.77;;
11283;SDS011;5698;47.332;11.180;2023-02-28T03:30:03;10.50;;;9.27;;
11283;SDS011;5698;47.332;11.180;2023-02-28T03:32:33;11.13;;;9.20;;
11283;SDS011;5698;47.332;11.180;2023-02-28T03:35:06;12.40;;;9.40;;
11283;SDS011;5698;47.332;11.180;2023-02-28T03:37:39;11.93;;;8.83;;
11283;SDS011;5698;47.332;11.180;2023-02-28T03:40:09;10.60;;;8.43;;
11283;SDS011;5698;47.332;11.180;2023-02-28T03:42:39;8.50;;;7.53;;
11283;SDS011;5698;47.332;11.180;2023-02-28T03:45:10;9.87;;;8.17;;
11283;SDS011;5698;47.332;11.180;2023-02-28T03:47:40;9.03;;;7.63;;
11283;SDS011;5698;47.332;11.180;2023-02-28T03:50:12;10.30;;;8.30;;
11283;SDS011;5698;47.332;11.180;2023-02-28T03:52:44;9.60;;;8.60;;
11283;SDS011;5698;47.332;11.180;2023-02-28T03:55:15;9.97;;;8.13;;
11283;SDS011;5698;47.332;11.180;2023-02-28T03:57:47;8.50;;;7.60;;
11283;SDS011;5698;47.332;11.180;2023-02-28T04:00:25;7.57;;;6.73;;
11283;SDS011;5698;47.332;11.180;2023-02-28T04:02:56;8.27;;;7.33;;
11283;SDS011;5698;47.332;11.180;2023-02-28T04:05:24;8.03;;;7.17;;
11283;SDS011;5698;47.332;11.180;2023-02-28T04:07:53;7.73;;;6.73;;
11283;SDS011;5698;47.332;11.180;2023-02-28T04:10:20;8.63;;;6.73;;
11283;SDS011;5698;47.332;11.180;2023-02-28T04:12:47;7.60;;;6.80;;
11283;SDS011;5698;47.332;11.180;2023-02-28T04:15:14;7.73;;;6.93;;
11283;SDS011;5698;47.332;11.180;2023-02-28T04:17:41;8.67;;;7.30;;
11283;SDS011;5698;47.332;11.180;2023-02-28T04:20:09;10.23;;;7.87;;
11283;SDS011;5698;47.332;11.180;2023-02-28T04:22:36;9.90;;;8.90;;
11283;SDS011;5698;47.332;11.180;2023-02-28T04:25:06;9.13;;;8.23;;
11283;SDS011;5698;47.332;11.180;2023-02-28T04:27:33;10.27;;;8.33;;
11283;SDS011;5698;47.332;11.180;2023-02-28T04:30:00;8.90;;;8.00;;
11283;SDS011;5698;47.332;11.180;2023-02-28T04:32:28;9.43;;;7.90;;
11283;SDS011;5698;47.332;11.180;2023-02-28T04:34:55;9.60;;;8.30;;
11283;SDS011;5698;47.332;11.180;2023-02-28T04:37:21;8.77;;;7.07;;
11283;SDS011;5698;47.332;11.180;2023-02-28T04:39:53;7.77;;;6.97;;
11283;SDS011;5698;47.332;11.180;2023-02-28T04:42:22;7.50;;;6.70;;
11283;SDS011;5698;47.332;11.180;2023-02-28T04:44:49;11.00;;;7.90;;
11283;SDS011;5698;47.332;11.180;2023-02-28T04:47:16;7.77;;;6.97;;
11283;SDS011;5698;47.332;11.180;2023-02-28T04:49:43;10.53;;;7.33;;
11283;SDS011;5698;47.332;11.180;2023-02-28T04:52:11;8.87;;;6.40;;
11283;SDS011;5698;47.332;11.180;2023-02-28T04:54:38;7.87;;;7.07;;
11283;SDS011;5698;47.332;11.180;2023-02-28T04:57:05;9.27;;;7.50;;
11283;SDS011;5698;47.332;11.180;2023-02-28T04:59:34;7.70;;;7.00;;
11283;SDS011;5698;47.332;11.180;2023-02-28T05:02:01;7.77;;;6.70;;
11283;SDS011;5698;47.332;11.180;2023-02-28T05:04:31;8.97;;;7.50;;
11283;SDS011;5698;47.332;11.180;2023-02-28T05:06:59;7.80;;;7.00;;
11283;SDS011;5698;47.332;11.180;2023-02-28T05:09:26;7.87;;;6.50;;
11283;SDS011;5698;47.332;11.180;2023-02-28T05:11:53;8.07;;;6.50;;
11283;SDS011;5698;47.332;11.180;2023-02-28T05:14:20;7.63;;;6.70;;
11283;SDS011;5698;47.332;11.180;2023-02-28T05:16:48;7.67;;;6.83;;
11283;SDS011;5698;47.332;11.180;2023-02-28T05:19:15;9.30;;;7.90;;
11283;SDS011;5698;47.332;11.180;2023-02-28T05:21:48;8.27;;;7.30;;
11283;SDS011;5698;47.332;11.180;2023-02-28T05:24:17;9.77;;;7.57;;
11283;SDS011;5698;47.332;11.180;2023-02-28T05:26:49;8.87;;;7.93;;
11283;SDS011;5698;47.332;11.180;2023-02-28T05:29:17;8.33;;;7.13;;
11283;SDS011;5698;47.332;11.180;2023-02-28T05:31:44;7.97;;;6.67;;
11283;SDS011;5698;47.332;11.180;2023-02-28T05:34:13;7.73;;;6.27;;
11283;SDS011;5698;47.332;11.180;2023-02-28T05:36:41;8.47;;;7.40;;
11283;SDS011;5698;47.332;11.180;2023-02-28T05:39:08;7.50;;;6.67;;
11283;SDS011;5698;47.332;11.180;2023-02-28T05:41:38;8.17;;;7.17;;
11283;SDS011;5698;47.332;11.180;2023-02-28T05:44:08;8.07;;;6.47;;
11283;SDS011;5698;47.332;11.180;2023-02-28T05:46:35;7.17;;;6.40;;
11283;SDS011;5698;47.332;11.180;2023-02-28T05:49:03;7.03;;;6.33;;
11283;SDS011;5698;47.332;11.180;2023-02-28T05:51:32;8.53;;;7.20;;
11283;SDS011;5698;47.332;11.180;2023-02-28T05:53:59;11.77;;;7.63;;
11283;SDS011;5698;47.332;11.180;2023-02-28T05:56:27;7.97;;;7.17;;
11283;SDS011;5698;47.332;11.180;2023-02-28T05:58:54;10.23;;;7.17;;
11283;SDS011;5698;47.332;11.180;2023-02-28T06:01:23;7.77;;;6.30;;
11283;SDS011;5698;47.332;11.180;2023-02-28T06:03:56;8.47;;;7.33;;
11283;SDS011;5698;47.332;11.180;2023-02-28T06:06:24;8.27;;;6.60;;
11283;SDS011;5698;47.332;11.180;2023-02-28T06:08:52;6.90;;;6.10;;
11283;SDS011;5698;47.332;11.180;2023-02-28T06:11:19;8.00;;;7.17;;
11283;SDS011;5698;47.332;11.180;2023-02-28T06:13:46;7.47;;;6.50;;
11283;SDS011;5698;47.332;11.180;2023-02-28T06:16:14;7.97;;;6.73;;
11283;SDS011;5698;47.332;11.180;2023-02-28T06:18:41;8.00;;;6.47;;
11283;SDS011;5698;47.332;11.180;2023-02-28T06:21:08;7.10;;;6.40;;
11283;SDS011;5698;47.332;11.180;2023-02-28T06:23:34;8.47;;;7.67;;
11283;SDS011;5698;47.332;11.180;2023-02-28T06:26:03;8.00;;;7.20;;
11283;SDS011;5698;47.332;11.180;2023-02-28T06:28:30;7.80;;;6.83;;
11283;SDS011;5698;47.332;11.180;2023-02-28T06:30:58;9.73;;;8.37;;
11283;SDS011;5698;47.332;11.180;2023-02-28T06:33:25;9.63;;;7.97;;
11283;SDS011;5698;47.332;11.180;2023-02-28T06:35:52;9.63;;;7.87;;
11283;SDS011;5698;47.332;11.180;2023-02-28T06:38:19;9.87;;;8.00;;
11283;SDS011;5698;47.332;11.180;2023-02-28T06:40:52;9.30;;;7.33;;
11283;SDS011;5698;47.332;11.180;2023-02-28T06:43:21;9.07;;;7.90;;
11283;SDS011;5698;47.332;11.180;2023-02-28T06:45:49;7.80;;;6.97;;
11283;SDS011;5698;47.332;11.180;2023-02-28T06:48:16;8.50;;;7.57;;
11283;SDS011;5698;47.332;11.180;2023-02-28T06:50:44;10.00;;;8.30;;
11283;SDS011;5698;47.332;11.180;2023-02-28T06:53:11;11.90;;;9.03;;
11283;SDS011;5698;47.332;11.180;2023-02-28T06:55:39;9.83;;;8.27;;
11283;SDS011;5698;47.332;11.180;2023-02-28T06:58:06;10.23;;;8.33;;
11283;SDS011;5698;47.332;11.180;2023-02-28T07:00:41;9.10;;;8.10;;
11283;SDS011;5698;47.332;11.180;2023-02-28T07:03:08;7.70;;;6.90;;
11283;SDS011;5698;47.332;11.180;2023-02-28T07:05:36;7.70;;;6.60;;
11283;SDS011;5698;47.332;11.180;2023-02-28T07:08:03;8.23;;;7.03;;
11283;SDS011;5698;47.332;11.180;2023-02-28T07:10:32;8.10;;;7.30;;
11283;SDS011;5698;47.332;11.180;2023-02-28T07:12:59;9.23;;;7.93;;
11283;SDS011;5698;47.332;11.180;2023-02-28T07:15:26;9.20;;;7.43;;
11283;SDS011;5698;47.332;11.180;2023-02-28T07:17:55;9.17;;;7.63;;
11283;SDS011;5698;47.332;11.180;2023-02-28T07:20:22;12.67;;;10.00;;
11283;SDS011;5698;47.332;11.180;2023-02-28T07:22:49;11.17;;;9.97;;
11283;SDS011;5698;47.332;11.180;2023-02-28T07:25:21;10.87;;;9.47;;
11283;SDS011;5698;47.332;11.180;2023-02-28T07:27:48;9.97;;;7.87;;
11283;SDS011;5698;47.332;11.180;2023-02-28T07:30:16;8.00;;;7.20;;
11283;SDS011;5698;47.332;11.180;2023-02-28T07:32:43;9.97;;;7.63;;
11283;SDS011;5698;47.332;11.180;2023-02-28T07:35:11;9.83;;;8.80;;
11283;SDS011;5698;47.332;11.180;2023-02-28T07:37:40;8.23;;;7.43;;
11283;SDS011;5698;47.332;11.180;2023-02-28T07:40:08;7.70;;;6.90;;
11283;SDS011;5698;47.332;11.180;2023-02-28T07:42:37;8.77;;;7.87;;
11283;SDS011;5698;47.332;11.180;2023-02-28T07:45:05;8.97;;;7.57;;
11283;SDS011;5698;47.332;11.180;2023-02-28T07:47:33;7.90;;;7.10;;
11283;SDS011;5698;47.332;11.180;2023-02-28T07:50:01;6.83;;;6.03;;
11283;SDS011;5698;47.332;11.180;2023-02-28T07:52:29;6.27;;;5.70;;
11283;SDS011;5698;47.332;11.180;2023-02-28T07:54:56;5.63;;;5.13;;
11283;SDS011;5698;47.332;11.180;2023-02-28T07:57:23;6.80;;;6.10;;
11283;SDS011;5698;47.332;11.180;2023-02-28T07:59:50;6.27;;;5.73;;
11283;SDS011;5698;47.332;11.180;2023-02-28T08:02:17;6.53;;;5.93;;
11283;SDS011;5698;47.332;11.180;2023-02-28T08:04:45;6.33;;;5.73;;
11283;SDS011;5698;47.332;11.180;2023-02-28T08:07:13;6.73;;;6.00;;
11283;SDS011;5698;47.332;11.180;2023-02-28T08:09:41;6.43;;;5.83;;
11283;SDS011;5698;47.332;11.180;2023-02-28T08:12:09;6.97;;;6.37;;
11283;SDS011;5698;47.332;11.180;2023-02-28T08:14:37;6.30;;;5.70;;
11283;SDS011;5698;47.332;11.180;2023-02-28T08:17:04;5.87;;;5.27;;
11283;SDS011;5698;47.332;11.180;2023-02-28T08:19:32;5.93;;;5.33;;
11283;SDS011;5698;47.332;11.180;2023-02-28T08:21:59;6.50;;;5.80;;
11283;SDS011;5698;47.332;11.180;2023-02-28T08:24:26;6.70;;;5.90;;
11283;SDS011;5698;47.332;11.180;2023-02-28T08:26:54;5.87;;;5.27;;
11283;SDS011;5698;47.332;11.180;2023-02-28T08:29:22;7.73;;;6.07;;
11283;SDS011;5698;47.332;11.180;2023-02-28T08:31:49;6.43;;;5.67;;
11283;SDS011;5698;47.332;11.180;2023-02-28T08:34:16;7.23;;;5.37;;
11283;SDS011;5698;47.332;11.180;2023-02-28T08:36:43;6.03;;;5.43;;
11283;SDS011;5698;47.332;11.180;2023-02-28T08:39:11;6.27;;;5.20;;
11283;SDS011;5698;47.332;11.180;2023-02-28T08:41:38;5.93;;;5.23;;
11283;SDS011;5698;47.332;11.180;2023-02-28T08:44:07;6.33;;;5.73;;
11283;SDS011;5698;47.332;11.180;2023-02-28T08:46:34;7.37;;;5.50;;
11283;SDS011;5698;47.332;11.180;2023-02-28T08:49:01;5.97;;;5.40;;
11283;SDS011;5698;47.332;11.180;2023-02-28T08:51:28;6.17;;;5.57;;
11283;SDS011;5698;47.332;11.180;2023-02-28T08:53:57;6.13;;;5.53;;
11283;SDS011;5698;47.332;11.180;2023-02-28T08:56:26;6.33;;;5.73;;
11283;SDS011;5698;47.332;11.180;2023-02-28T08:58:54;6.10;;;5.50;;
11283;SDS011;5698;47.332;11.180;2023-02-28T09:01:25;6.53;;;5.87;;
11283;SDS011;5698;47.332;11.180;2023-02-28T09:03:53;6.70;;;6.00;;
11283;SDS011;5698;47.332;11.180;2023-02-28T09:06:22;6.23;;;4.67;;
11283;SDS011;5698;47.332;11.180;2023-02-28T09:08:50;5.57;;;5.07;;
11283;SDS011;5698;47.332;11.180;2023-02-28T09:11:17;5.47;;;4.97;;
11283;SDS011;5698;47.332;11.180;2023-02-28T09:13:44;6.20;;;5.60;;
11283;SDS011;5698;47.332;11.180;2023-02-28T09:16:13;5.20;;;4.70;;
11283;SDS011;5698;47.332;11.180;2023-02-28T09:18:42;5.53;;;4.93;;
11283;SDS011;5698;47.332;11.180;2023-02-28T09:21:11;5.47;;;4.57;;
11283;SDS011;5698;47.332;11.180;2023-02-28T09:23:40;5.10;;;4.60;;
11283;SDS011;5698;47.332;11.180;2023-02-28T09:26:08;5.00;;;4.50;;
11283;SDS011;5698;47.332;11.180;2023-02-28T09:28:39;4.10;;;3.80;;
11283;SDS011;5698;47.332;11.180;2023-02-28T09:31:10;4.10;;;3.80;;
11283;SDS011;5698;47.332;11.180;2023-02-28T09:33:39;5.50;;;5.00;;
11283;SDS011;5698;47.332;11.180;2023-02-28T09:36:08;4.97;;;4.50;;
11283;SDS011;5698;47.332;11.180;2023-02-28T09:38:35;3.87;;;3.57;;
11283;SDS011;5698;47.332;11.180;2023-02-28T09:41:03;3.83;;;3.53;;
11283;SDS011;5698;47.332;11.180;2023-02-28T09:43:38;3.70;;;3.40;;
11283;SDS011;5698;47.332;11.180;2023-02-28T09:46:12;3.47;;;3.17;;
11283;SDS011;5698;47.332;11.180;2023-02-28T09:48:47;3.83;;;3.53;;
11283;SDS011;5698;47.332;11.180;2023-02-28T09:51:23;3.97;;;3.67;;
11283;SDS011;5698;47.332;11.180;2023-02-28T09:53:56;4.73;;;4.33;;
11283;SDS011;5698;47.332;11.180;2023-02-28T09:56:24;4.37;;;3.97;;
11283;SDS011;5698;47.332;11.180;2023-02-28T09:58:55;4.67;;;4.27;;
11283;SDS011;5698;47.332;11.180;2023-02-28T10:01:29;5.13;;;4.63;;
11283;SDS011;5698;47.332;11.180;2023-02-28T10:04:03;4.53;;;4.10;;
11283;SDS011;5698;47.332;11.180;2023-02-28T10:06:41;5.50;;;4.87;;
11283;SDS011;5698;47.332;11.180;2023-02-28T10:09:13;5.93;;;4.97;;
11283;SDS011;5698;47.332;11.180;2023-02-28T10:11:45;6.50;;;5.33;;
11283;SDS011;5698;47.332;11.180;2023-02-28T10:14:16;5.90;;;4.30;;
11283;SDS011;5698;47.332;11.180;2023-02-28T10:16:46;4.20;;;3.80;;
11283;SDS011;5698;47.332;11.180;2023-02-28T10:19:18;4.87;;;4.47;;
11283;SDS011;5698;47.332;11.180;2023-02-28T10:21:52;5.73;;;5.23;;
11283;SDS011;5698;47.332;11.180;2023-02-28T10:24:28;5.30;;;4.60;;
11283;SDS011;5698;47.332;11.180;2023-02-28T10:27:00;6.47;;;5.27;;
11283;SDS011;5698;47.332;11.180;2023-02-28T10:29:28;4.47;;;4.17;;
11283;SDS011;5698;47.332;11.180;2023-02-28T10:31:59;5.40;;;4.37;;
11283;SDS011;5698;47.332;11.180;2023-02-28T10:34:28;5.87;;;4.93;;
11283;SDS011;5698;47.332;11.180;2023-02-28T10:36:57;4.97;;;4.57;;
11283;SDS011;5698;47.332;11.180;2023-02-28T10:39:39;4.77;;;4.30;;
11283;SDS011;5698;47.332;11.180;2023-02-28T10:42:18;4.50;;;3.70;;
11283;SDS011;5698;47.332;11.180;2023-02-28T10:44:53;4.40;;;4.00;;
11283;SDS011;5698;47.332;11.180;2023-02-28T10:47:33;4.30;;;4.00;;
11283;SDS011;5698;47.332;11.180;2023-02-28T10:50:04;4.20;;;3.90;;
11283;SDS011;5698;47.332;11.180;2023-02-28T10:52:37;3.80;;;3.50;;
11283;SDS011;5698;47.332;11.180;2023-02-28T10:55:18;3.73;;;3.23;;
11283;SDS011;5698;47.332;11.180;2023-02-28T10:57:48;4.00;;;3.70;;
11283;SDS011;5698;47.332;11.180;2023-02-28T11:00:16;4.23;;;3.20;;
11283;SDS011;5698;47.332;11.180;2023-02-28T11:02:46;4.07;;;3.47;;
11283;SDS011;5698;47.332;11.180;2023-02-28T11:05:24;3.30;;;3.00;;
11283;SDS011;5698;47.332;11.180;2023-02-28T11:07:55;3.03;;;2.83;;
11283;SDS011;5698;47.332;11.180;2023-02-28T11:10:25;3.30;;;3.00;;
11283;SDS011;5698;47.332;11.180;2023-02-28T11:12:57;3.90;;;3.50;;
11283;SDS011;5698;47.332;11.180;2023-02-28T11:15:25;3.67;;;3.37;;
11283;SDS011;5698;47.332;11.180;2023-02-28T11:17:54;3.10;;;2.80;;
11283;SDS011;5698;47.332;11.180;2023-02-28T11:20:24;3.40;;;3.10;;
11283;SDS011;5698;47.332;11.180;2023-02-28T11:22:54;2.93;;;2.73;;
11283;SDS011;5698;47.332;11.180;2023-02-28T11:25:24;3.40;;;3.10;;
11283;SDS011;5698;47.332;11.180;2023-02-28T11:27:53;3.27;;;2.90;;
11283;SDS011;5698;47.332;11.180;2023-02-28T11:30:26;4.03;;;3.20;;
11283;SDS011;5698;47.332;11.180;2023-02-28T11:32:55;3.63;;;3.10;;
11283;SDS011;5698;47.332;11.180;2023-02-28T11:35:23;3.70;;;3.40;;
11283;SDS011;5698;47.332;11.180;2023-02-28T11:37:56;3.30;;;3.00;;
11283;SDS011;5698;47.332;11.180;2023-02-28T11:40:25;3.57;;;3.27;;
11283;SDS011;5698;47.332;11.180;2023-02-28T11:43:01;3.53;;;3.20;;
11283;SDS011;5698;47.332;11.180;2023-02-28T11:45:42;3.10;;;2.90;;
11283;SDS011;5698;47.332;11.180;2023-02-28T11:48:17;4.23;;;3.50;;
11283;SDS011;5698;47.332;11.180;2023-02-28T11:50:52;3.90;;;3.50;;
11283;SDS011;5698;47.332;11.180;2023-02-28T11:53:32;3.80;;;3.37;;
11283;SDS011;5698;47.332;11.180;2023-02-28T11:56:10;4.13;;;3.80;;
11283;SDS011;5698;47.332;11.180;2023-02-28T11:58:49;3.50;;;3.20;;
11283;SDS011;5698;47.332;11.180;2023-02-28T12:01:24;5.20;;;4.70;;
11283;SDS011;5698;47.332;11.180;2023-02-28T12:04:03;4.33;;;4.00;;
11283;SDS011;5698;47.332;11.180;2023-02-28T12:06:40;7.10;;;6.43;;
11283;SDS011;5698;47.332;11.180;2023-02-28T12:12:04;6.80;;;6.20;;
11283;SDS011;5698;47.332;11.180;2023-02-28T12:14:46;7.67;;;6.90;;
11283;SDS011;5698;47.332;11.180;2023-02-28T12:17:27;8.10;;;6.93;;
11283;SDS011;5698;47.332;11.180;2023-02-28T12:20:10;7.60;;;7.00;;
11283;SDS011;5698;47.332;11.180;2023-02-28T12:22:49;7.63;;;7.00;;
11283;SDS011;5698;47.332;11.180;2023-02-28T12:28:19;7.40;;;6.70;;
11283;SDS011;5698;47.332;11.180;2023-02-28T12:30:53;6.70;;;6.10;;
11283;SDS011;5698;47.332;11.180;2023-02-28T12:33:23;6.63;;;5.93;;
11283;SDS011;5698;47.332;11.180;2023-02-28T12:35:54;6.37;;;5.77;;
11283;SDS011;5698;47.332;11.180;2023-02-28T12:38:23;5.37;;;4.93;;
11283;SDS011;5698;47.332;11.180;2023-02-28T12:40:55;5.13;;;4.70;;
11283;SDS011;5698;47.332;11.180;2023-02-28T12:43:27;5.63;;;5.03;;
11283;SDS011;5698;47.332;11.180;2023-02-28T12:46:00;5.63;;;5.13;;
11283;SDS011;5698;47.332;11.180;2023-02-28T12:48:36;4.87;;;4.20;;
11283;SDS011;5698;47.332;11.180;2023-02-28T12:51:07;5.20;;;4.03;;
11283;SDS011;5698;47.332;11.180;2023-02-28T12:53:38;4.33;;;3.80;;
11283;SDS011;5698;47.332;11.180;2023-02-28T12:56:17;4.87;;;4.47;;
11283;SDS011;5698;47.332;11.180;2023-02-28T12:58:48;4.83;;;4.43;;
11283;SDS011;5698;47.332;11.180;2023-02-28T13:01:26;4.67;;;3.90;;
11283;SDS011;5698;47.332;11.180;2023-02-28T13:04:14;4.00;;;3.57;;
11283;SDS011;5698;47.332;11.180;2023-02-28T13:07:23;3.73;;;3.43;;
11283;SDS011;5698;47.332;11.180;2023-02-28T13:10:11;3.93;;;3.63;;
11283;SDS011;5698;47.332;11.180;2023-02-28T13:12:48;3.17;;;2.93;;
11283;SDS011;5698;47.332;11.180;2023-02-28T13:15:17;3.73;;;2.80;;
11283;SDS011;5698;47.332;11.180;2023-02-28T13:17:49;3.20;;;2.90;;
11283;SDS011;5698;47.332;11.180;2023-02-28T13:20:19;2.70;;;2.50;;
11283;SDS011;5698;47.332;11.180;2023-02-28T13:22:50;2.80;;;2.50;;
11283;SDS011;5698;47.332;11.180;2023-02-28T13:31:32;5.47;;;5.00;;
11283;SDS011;5698;47.332;11.180;2023-02-28T13:34:15;6.33;;;5.23;;
11283;SDS011;5698;47.332;11.180;2023-02-28T13:36:42;7.90;;;7.20;;
11283;SDS011;5698;47.332;11.180;2023-02-28T13:42:23;6.73;;;6.13;;
11283;SDS011;5698;47.332;11.180;2023-02-28T13:45:21;5.80;;;5.20;;
11283;SDS011;5698;47.332;11.180;2023-02-28T13:47:54;4.37;;;3.40;;
11283;SDS011;5698;47.332;11.180;2023-02-28T13:50:30;3.60;;;3.30;;
11283;SDS011;5698;47.332;11.180;2023-02-28T13:56:19;4.93;;;3.40;;
11283;SDS011;5698;47.332;11.180;2023-02-28T13:58:58;4.50;;;3.90;;
11283;SDS011;5698;47.332;11.180;2023-02-28T14:01:41;6.27;;;5.67;;
11283;SDS011;5698;47.332;11.180;2023-02-28T14:04:33;5.13;;;4.60;;
11283;SDS011;5698;47.332;11.180;2023-02-28T14:07:16;7.47;;;6.73;;
11283;SDS011;5698;47.332;11.180;2023-02-28T14:09:46;7.60;;;6.90;;
11283;SDS011;5698;47.332;11.180;2023-02-28T14:15:34;7.90;;;7.10;;
11283;SDS011;5698;47.332;11.180;2023-02-28T14:18:13;7.30;;;6.60;;
11283;SDS011;5698;47.332;11.180;2023-02-28T14:20:52;5.60;;;5.20;;
11283;SDS011;5698;47.332;11.180;2023-02-28T14:23:26;7.73;;;6.37;;
11283;SDS011;5698;47.332;11.180;2023-02-28T14:26:13;7.23;;;6.60;;
11283;SDS011;5698;47.332;11.180;2023-02-28T14:28:58;8.73;;;6.90;;
11283;SDS011;5698;47.332;11.180;2023-02-28T14:31:38;8.53;;;6.90;;
11283;SDS011;5698;47.332;11.180;2023-02-28T14:34:20;11.17;;;7.07;;
11283;SDS011;5698;47.332;11.180;2023-02-28T14:37:00;7.73;;;6.93;;
11283;SDS011;5698;47.332;11.180;2023-02-28T14:39:29;6.73;;;6.03;;
11283;SDS011;5698;47.332;11.180;2023-02-28T14:41:57;6.93;;;6.30;;
11283;SDS011;5698;47.332;11.180;2023-02-28T14:44:28;8.03;;;6.90;;
11283;SDS011;5698;47.332;11.180;2023-02-28T14:46:56;7.80;;;5.90;;
11283;SDS011;5698;47.332;11.180;2023-02-28T14:49:29;5.37;;;4.87;;
11283;SDS011;5698;47.332;11.180;2023-02-28T14:52:03;4.67;;;4.27;;
11283;SDS011;5698;47.332;11.180;2023-02-28T14:54:35;5.93;;;3.80;;
11283;SDS011;5698;47.332;11.180;2023-02-28T14:57:03;4.40;;;4.00;;
11283;SDS011;5698;47.332;11.180;2023-02-28T14:59:31;3.90;;;3.60;;
11283;SDS011;5698;47.332;11.180;2023-02-28T15:02:21;4.10;;;3.80;;
11283;SDS011;5698;47.332;11.180;2023-02-28T15:04:53;3.70;;;3.40;;
11283;SDS011;5698;47.332;11.180;2023-02-28T15:07:23;4.97;;;4.37;;
11283;SDS011;5698;47.332;11.180;2023-02-28T15:10:07;3.80;;;3.50;;
11283;SDS011;5698;47.332;11.180;2023-02-28T15:12:40;4.77;;;4.07;;
11283;SDS011;5698;47.332;11.180;2023-02-28T15:15:14;4.47;;;4.07;;
11283;SDS011;5698;47.332;11.180;2023-02-28T15:17:42;4.63;;;4.23;;
11283;SDS011;5698;47.332;11.180;2023-02-28T15:20:12;4.10;;;3.80;;
11283;SDS011;5698;47.332;11.180;2023-02-28T15:22:42;4.17;;;3.87;;
11283;SDS011;5698;47.332;11.180;2023-02-28T15:25:11;4.20;;;3.90;;
11283;SDS011;5698;47.332;11.180;2023-02-28T15:27:45;4.27;;;3.93;;
11283;SDS011;5698;47.332;11.180;2023-02-28T15:30:15;3.83;;;3.53;;
11283;SDS011;5698;47.332;11.180;2023-02-28T15:32:45;5.07;;;4.57;;